sensor_id;sensor_type;location;lat;lon;timestamp;P1;durP1;ratioP1;P2;durP2;ratioP2
77322;SDS011;66384;51.052;9.850;2023-05-29T00:00:08;5.00;;;2.40;;
77322;SDS011;66384;51.052;9.850;2023-05-29T00:02:39;6.40;;;3.50;;
77322;SDS011;66384;51.052;9.850;2023-05-29T00:05:10;6.00;;;3.20;;
77322;SDS011;66384;51.052;9.850;2023-05-29T00:07:40;6.70;;;3.40;;
77322;SDS011;66384;51.052;9.850;2023-05-29T00:10:10;6.00;;;3.00;;
77322;SDS011;66384;51.052;9.850;2023-05-29T00:12:40;5.90;;;2.80;;
77322;SDS011;66384;51.052;9.850;2023-05-29T00:15:10;6.00;;;2.90;;
77322;SDS011;66384;51.052;9.850;2023-05-29T00:17:39;6.20;;;3.00;;
77322;SDS011;66384;51.052;9.850;2023-05-29T00:20:10;6.70;;;3.10;;
77322;SDS011;66384;51.052;9.850;2023-05-29T00:22:40;5.20;;;2.50;;
77322;SDS011;66384;51.052;9.850;2023-05-29T00:25:10;5.00;;;2.80;;
77322;SDS011;66384;51.052;9.850;2023-05-29T00:27:39;4.90;;;2.80;;
77322;SDS011;66384;51.052;9.850;2023-05-29T00:30:09;6.80;;;3.20;;
77322;SDS011;66384;51.052;9.850;2023-05-29T00:32:39;8.40;;;3.10;;
77322;SDS011;66384;51.052;9.850;2023-05-29T00:35:09;5.20;;;2.90;;
77322;SDS011;66384;51.052;9.850;2023-05-29T00:37:38;4.00;;;2.70;;
77322;SDS011;66384;51.052;9.850;2023-05-29T00:40:08;5.70;;;3.20;;
77322;SDS011;66384;51.052;9.850;2023-05-29T00:42:38;7.10;;;3.10;;
77322;SDS011;66384;51.052;9.850;2023-05-29T00:45:08;4.20;;;2.70;;
77322;SDS011;66384;51.052;9.850;2023-05-29T00:47:39;5.50;;;3.10;;
77322;SDS011;66384;51.052;9.850;2023-05-29T00:50:09;6.30;;;3.40;;
77322;SDS011;66384;51.052;9.850;2023-05-29T00:52:40;6.00;;;2.80;;
77322;SDS011;66384;51.052;9.850;2023-05-29T00:55:10;5.80;;;2.80;;
77322;SDS011;66384;51.052;9.850;2023-05-29T00:57:41;7.40;;;2.90;;
77322;SDS011;66384;51.052;9.850;2023-05-29T01:00:12;5.60;;;2.90;;
77322;SDS011;66384;51.052;9.850;2023-05-29T01:02:43;5.20;;;3.10;;
77322;SDS011;66384;51.052;9.850;2023-05-29T01:05:13;5.60;;;2.90;;
77322;SDS011;66384;51.052;9.850;2023-05-29T01:07:42;5.00;;;2.70;;
77322;SDS011;66384;51.052;9.850;2023-05-29T01:10:11;5.00;;;2.60;;
77322;SDS011;66384;51.052;9.850;2023-05-29T01:12:43;5.10;;;3.00;;
77322;SDS011;66384;51.052;9.850;2023-05-29T01:15:17;9.30;;;3.10;;
77322;SDS011;66384;51.052;9.850;2023-05-29T01:20:55;5.10;;;2.80;;
77322;SDS011;66384;51.052;9.850;2023-05-29T01:23:40;5.40;;;2.40;;
77322;SDS011;66384;51.052;9.850;2023-05-29T01:26:23;6.80;;;2.30;;
77322;SDS011;66384;51.052;9.850;2023-05-29T01:29:13;5.90;;;2.40;;
77322;SDS011;66384;51.052;9.850;2023-05-29T01:31:46;4.10;;;2.60;;
77322;SDS011;66384;51.052;9.850;2023-05-29T01:34:17;6.10;;;3.00;;
77322;SDS011;66384;51.052;9.850;2023-05-29T01:36:46;7.40;;;3.40;;
77322;SDS011;66384;51.052;9.850;2023-05-29T01:39:15;6.30;;;3.50;;
77322;SDS011;66384;51.052;9.850;2023-05-29T01:41:47;4.70;;;2.90;;
77322;SDS011;66384;51.052;9.850;2023-05-29T01:44:17;5.40;;;3.00;;
77322;SDS011;66384;51.052;9.850;2023-05-29T01:46:48;5.10;;;2.60;;
77322;SDS011;66384;51.052;9.850;2023-05-29T01:49:18;5.40;;;3.00;;
77322;SDS011;66384;51.052;9.850;2023-05-29T01:51:48;6.80;;;3.10;;
77322;SDS011;66384;51.052;9.850;2023-05-29T01:54:17;4.30;;;2.70;;
77322;SDS011;66384;51.052;9.850;2023-05-29T01:56:46;5.10;;;2.40;;
77322;SDS011;66384;51.052;9.850;2023-05-29T01:59:16;5.30;;;2.90;;
77322;SDS011;66384;51.052;9.850;2023-05-29T02:01:47;4.30;;;2.80;;
77322;SDS011;66384;51.052;9.850;2023-05-29T02:04:16;5.00;;;3.00;;
77322;SDS011;66384;51.052;9.850;2023-05-29T02:06:46;5.70;;;2.80;;
77322;SDS011;66384;51.052;9.850;2023-05-29T02:09:17;6.80;;;3.00;;
77322;SDS011;66384;51.052;9.850;2023-05-29T02:11:46;5.90;;;2.60;;
77322;SDS011;66384;51.052;9.850;2023-05-29T02:14:16;6.60;;;2.90;;
77322;SDS011;66384;51.052;9.850;2023-05-29T02:16:45;4.80;;;3.00;;
77322;SDS011;66384;51.052;9.850;2023-05-29T02:19:15;4.70;;;2.80;;
77322;SDS011;66384;51.052;9.850;2023-05-29T02:21:46;5.00;;;2.50;;
77322;SDS011;66384;51.052;9.850;2023-05-29T02:24:16;6.50;;;2.70;;
77322;SDS011;66384;51.052;9.850;2023-05-29T02:26:45;6.30;;;3.00;;
77322;SDS011;66384;51.052;9.850;2023-05-29T02:29:15;5.10;;;2.60;;
77322;SDS011;66384;51.052;9.850;2023-05-29T02:31:44;5.30;;;2.90;;
77322;SDS011;66384;51.052;9.850;2023-05-29T02:34:13;5.30;;;2.70;;
77322;SDS011;66384;51.052;9.850;2023-05-29T02:36:43;5.50;;;4.10;;
77322;SDS011;66384;51.052;9.850;2023-05-29T02:39:12;6.20;;;2.50;;
77322;SDS011;66384;51.052;9.850;2023-05-29T02:41:41;5.00;;;3.20;;
77322;SDS011;66384;51.052;9.850;2023-05-29T02:44:10;4.10;;;2.50;;
77322;SDS011;66384;51.052;9.850;2023-05-29T02:46:40;6.10;;;2.70;;
77322;SDS011;66384;51.052;9.850;2023-05-29T02:49:09;3.90;;;2.60;;
77322;SDS011;66384;51.052;9.850;2023-05-29T02:51:38;4.30;;;2.80;;
77322;SDS011;66384;51.052;9.850;2023-05-29T02:54:07;4.60;;;2.70;;
77322;SDS011;66384;51.052;9.850;2023-05-29T02:56:38;3.60;;;2.60;;
77322;SDS011;66384;51.052;9.850;2023-05-29T02:59:07;5.70;;;2.90;;
77322;SDS011;66384;51.052;9.850;2023-05-29T03:01:37;6.30;;;2.90;;
77322;SDS011;66384;51.052;9.850;2023-05-29T03:04:06;6.00;;;3.10;;
77322;SDS011;66384;51.052;9.850;2023-05-29T03:06:36;7.60;;;2.90;;
77322;SDS011;66384;51.052;9.850;2023-05-29T03:09:06;5.00;;;3.00;;
77322;SDS011;66384;51.052;9.850;2023-05-29T03:11:36;5.50;;;2.70;;
77322;SDS011;66384;51.052;9.850;2023-05-29T03:14:07;5.60;;;2.60;;
77322;SDS011;66384;51.052;9.850;2023-05-29T03:16:36;4.50;;;2.60;;
77322;SDS011;66384;51.052;9.850;2023-05-29T03:19:07;5.20;;;2.80;;
77322;SDS011;66384;51.052;9.850;2023-05-29T03:21:36;5.70;;;2.70;;
77322;SDS011;66384;51.052;9.850;2023-05-29T03:24:06;7.70;;;2.80;;
77322;SDS011;66384;51.052;9.850;2023-05-29T03:26:36;5.00;;;2.70;;
77322;SDS011;66384;51.052;9.850;2023-05-29T03:29:05;5.00;;;2.60;;
77322;SDS011;66384;51.052;9.850;2023-05-29T03:31:34;4.20;;;2.60;;
77322;SDS011;66384;51.052;9.850;2023-05-29T03:34:04;4.60;;;2.80;;
77322;SDS011;66384;51.052;9.850;2023-05-29T03:36:33;4.50;;;2.60;;
77322;SDS011;66384;51.052;9.850;2023-05-29T03:39:02;5.20;;;3.00;;
77322;SDS011;66384;51.052;9.850;2023-05-29T03:41:32;3.80;;;2.80;;
77322;SDS011;66384;51.052;9.850;2023-05-29T03:44:02;6.90;;;3.00;;
77322;SDS011;66384;51.052;9.850;2023-05-29T03:46:31;10.30;;;2.60;;
77322;SDS011;66384;51.052;9.850;2023-05-29T03:49:01;5.70;;;3.60;;
77322;SDS011;66384;51.052;9.850;2023-05-29T03:51:30;8.60;;;2.90;;
77322;SDS011;66384;51.052;9.850;2023-05-29T03:53:59;5.50;;;2.60;;
77322;SDS011;66384;51.052;9.850;2023-05-29T03:56:28;5.00;;;3.30;;
77322;SDS011;66384;51.052;9.850;2023-05-29T03:58:58;5.50;;;2.40;;
77322;SDS011;66384;51.052;9.850;2023-05-29T04:01:27;6.50;;;2.90;;
77322;SDS011;66384;51.052;9.850;2023-05-29T04:03:56;5.40;;;3.10;;
77322;SDS011;66384;51.052;9.850;2023-05-29T04:06:26;5.90;;;3.40;;
77322;SDS011;66384;51.052;9.850;2023-05-29T04:08:55;6.30;;;3.30;;
77322;SDS011;66384;51.052;9.850;2023-05-29T04:11:24;4.80;;;2.60;;
77322;SDS011;66384;51.052;9.850;2023-05-29T04:13:54;7.50;;;2.70;;
77322;SDS011;66384;51.052;9.850;2023-05-29T04:16:23;4.90;;;2.50;;
77322;SDS011;66384;51.052;9.850;2023-05-29T04:18:52;4.30;;;2.90;;
77322;SDS011;66384;51.052;9.850;2023-05-29T04:21:21;6.20;;;3.20;;
77322;SDS011;66384;51.052;9.850;2023-05-29T04:23:51;8.00;;;2.90;;
77322;SDS011;66384;51.052;9.850;2023-05-29T04:26:21;4.40;;;2.90;;
77322;SDS011;66384;51.052;9.850;2023-05-29T04:28:53;5.50;;;3.30;;
77322;SDS011;66384;51.052;9.850;2023-05-29T04:31:24;8.90;;;3.50;;
77322;SDS011;66384;51.052;9.850;2023-05-29T04:33:54;5.30;;;3.30;;
77322;SDS011;66384;51.052;9.850;2023-05-29T04:36:24;6.50;;;3.50;;
77322;SDS011;66384;51.052;9.850;2023-05-29T04:38:53;4.90;;;2.90;;
77322;SDS011;66384;51.052;9.850;2023-05-29T04:41:23;7.90;;;3.20;;
77322;SDS011;66384;51.052;9.850;2023-05-29T04:43:55;4.60;;;3.00;;
77322;SDS011;66384;51.052;9.850;2023-05-29T04:46:25;5.30;;;2.60;;
77322;SDS011;66384;51.052;9.850;2023-05-29T04:48:55;5.40;;;3.30;;
77322;SDS011;66384;51.052;9.850;2023-05-29T04:51:24;6.10;;;3.80;;
77322;SDS011;66384;51.052;9.850;2023-05-29T04:53:54;6.90;;;3.50;;
77322;SDS011;66384;51.052;9.850;2023-05-29T04:56:24;4.80;;;3.20;;
77322;SDS011;66384;51.052;9.850;2023-05-29T04:58:54;5.80;;;3.30;;
77322;SDS011;66384;51.052;9.850;2023-05-29T05:01:24;6.30;;;3.30;;
77322;SDS011;66384;51.052;9.850;2023-05-29T05:03:55;6.00;;;3.40;;
77322;SDS011;66384;51.052;9.850;2023-05-29T05:06:24;7.60;;;3.60;;
77322;SDS011;66384;51.052;9.850;2023-05-29T05:08:55;5.30;;;3.90;;
77322;SDS011;66384;51.052;9.850;2023-05-29T05:11:24;4.90;;;3.00;;
77322;SDS011;66384;51.052;9.850;2023-05-29T05:13:53;8.50;;;4.00;;
77322;SDS011;66384;51.052;9.850;2023-05-29T05:16:23;5.10;;;3.40;;
77322;SDS011;66384;51.052;9.850;2023-05-29T05:18:52;9.30;;;3.70;;
77322;SDS011;66384;51.052;9.850;2023-05-29T05:21:21;7.90;;;3.70;;
77322;SDS011;66384;51.052;9.850;2023-05-29T05:23:51;8.80;;;4.10;;
77322;SDS011;66384;51.052;9.850;2023-05-29T05:26:20;6.20;;;3.50;;
77322;SDS011;66384;51.052;9.850;2023-05-29T05:28:49;7.20;;;3.90;;
77322;SDS011;66384;51.052;9.850;2023-05-29T05:31:19;6.90;;;3.70;;
77322;SDS011;66384;51.052;9.850;2023-05-29T05:33:49;6.20;;;3.80;;
77322;SDS011;66384;51.052;9.850;2023-05-29T05:36:18;7.80;;;4.50;;
77322;SDS011;66384;51.052;9.850;2023-05-29T05:38:47;8.30;;;4.20;;
77322;SDS011;66384;51.052;9.850;2023-05-29T05:41:16;10.40;;;4.40;;
77322;SDS011;66384;51.052;9.850;2023-05-29T05:43:47;8.10;;;4.70;;
77322;SDS011;66384;51.052;9.850;2023-05-29T05:46:17;10.20;;;4.90;;
77322;SDS011;66384;51.052;9.850;2023-05-29T05:48:52;11.00;;;5.50;;
77322;SDS011;66384;51.052;9.850;2023-05-29T05:53:51;17.80;;;5.50;;
77322;SDS011;66384;51.052;9.850;2023-05-29T05:56:20;10.50;;;4.60;;
77322;SDS011;66384;51.052;9.850;2023-05-29T05:58:49;10.20;;;5.00;;
77322;SDS011;66384;51.052;9.850;2023-05-29T06:01:19;9.70;;;5.30;;
77322;SDS011;66384;51.052;9.850;2023-05-29T06:03:49;9.10;;;4.90;;
77322;SDS011;66384;51.052;9.850;2023-05-29T06:06:18;10.30;;;5.00;;
77322;SDS011;66384;51.052;9.850;2023-05-29T06:08:47;9.20;;;4.30;;
77322;SDS011;66384;51.052;9.850;2023-05-29T06:11:17;9.20;;;4.70;;
77322;SDS011;66384;51.052;9.850;2023-05-29T06:13:46;8.90;;;5.10;;
77322;SDS011;66384;51.052;9.850;2023-05-29T06:16:15;10.50;;;4.70;;
77322;SDS011;66384;51.052;9.850;2023-05-29T06:18:45;9.40;;;5.60;;
77322;SDS011;66384;51.052;9.850;2023-05-29T06:21:14;13.00;;;4.90;;
77322;SDS011;66384;51.052;9.850;2023-05-29T06:23:43;16.80;;;5.90;;
77322;SDS011;66384;51.052;9.850;2023-05-29T06:26:12;8.40;;;4.10;;
77322;SDS011;66384;51.052;9.850;2023-05-29T06:28:42;13.30;;;5.30;;
77322;SDS011;66384;51.052;9.850;2023-05-29T06:31:11;9.30;;;4.70;;
77322;SDS011;66384;51.052;9.850;2023-05-29T06:33:40;10.30;;;5.00;;
77322;SDS011;66384;51.052;9.850;2023-05-29T06:36:10;11.10;;;5.20;;
77322;SDS011;66384;51.052;9.850;2023-05-29T06:38:39;13.90;;;5.10;;
77322;SDS011;66384;51.052;9.850;2023-05-29T06:41:12;10.60;;;4.70;;
77322;SDS011;66384;51.052;9.850;2023-05-29T06:43:42;9.40;;;4.80;;
77322;SDS011;66384;51.052;9.850;2023-05-29T06:46:12;8.20;;;4.70;;
77322;SDS011;66384;51.052;9.850;2023-05-29T06:48:41;9.30;;;5.50;;
77322;SDS011;66384;51.052;9.850;2023-05-29T06:51:11;12.20;;;4.60;;
77322;SDS011;66384;51.052;9.850;2023-05-29T06:53:40;12.10;;;4.80;;
77322;SDS011;66384;51.052;9.850;2023-05-29T06:56:10;8.30;;;4.60;;
77322;SDS011;66384;51.052;9.850;2023-05-29T06:58:39;12.90;;;4.80;;
77322;SDS011;66384;51.052;9.850;2023-05-29T07:01:08;9.90;;;4.50;;
77322;SDS011;66384;51.052;9.850;2023-05-29T07:03:38;8.10;;;4.40;;
77322;SDS011;66384;51.052;9.850;2023-05-29T07:06:07;11.30;;;5.60;;
77322;SDS011;66384;51.052;9.850;2023-05-29T07:08:36;9.90;;;4.90;;
77322;SDS011;66384;51.052;9.850;2023-05-29T07:11:06;9.10;;;4.60;;
77322;SDS011;66384;51.052;9.850;2023-05-29T07:13:36;7.80;;;4.40;;
77322;SDS011;66384;51.052;9.850;2023-05-29T07:16:05;10.20;;;4.70;;
77322;SDS011;66384;51.052;9.850;2023-05-29T07:18:35;9.20;;;4.40;;
77322;SDS011;66384;51.052;9.850;2023-05-29T07:21:04;13.20;;;4.30;;
77322;SDS011;66384;51.052;9.850;2023-05-29T07:23:34;8.90;;;4.50;;
77322;SDS011;66384;51.052;9.850;2023-05-29T07:26:03;8.70;;;4.40;;
77322;SDS011;66384;51.052;9.850;2023-05-29T07:28:32;9.50;;;4.60;;
77322;SDS011;66384;51.052;9.850;2023-05-29T07:31:02;10.30;;;4.90;;
77322;SDS011;66384;51.052;9.850;2023-05-29T07:33:31;11.70;;;5.00;;
77322;SDS011;66384;51.052;9.850;2023-05-29T07:38:29;9.90;;;5.40;;
77322;SDS011;66384;51.052;9.850;2023-05-29T07:40:59;10.70;;;4.40;;
77322;SDS011;66384;51.052;9.850;2023-05-29T07:43:28;9.70;;;4.70;;
77322;SDS011;66384;51.052;9.850;2023-05-29T07:45:57;9.60;;;4.80;;
77322;SDS011;66384;51.052;9.850;2023-05-29T07:48:27;11.80;;;5.30;;
77322;SDS011;66384;51.052;9.850;2023-05-29T07:50:57;10.30;;;4.90;;
77322;SDS011;66384;51.052;9.850;2023-05-29T07:53:27;9.80;;;4.30;;
77322;SDS011;66384;51.052;9.850;2023-05-29T07:55:57;11.20;;;4.70;;
77322;SDS011;66384;51.052;9.850;2023-05-29T07:58:26;10.20;;;4.60;;
77322;SDS011;66384;51.052;9.850;2023-05-29T08:00:55;10.50;;;5.50;;
77322;SDS011;66384;51.052;9.850;2023-05-29T08:03:25;9.80;;;6.30;;
77322;SDS011;66384;51.052;9.850;2023-05-29T08:05:55;14.10;;;6.70;;
77322;SDS011;66384;51.052;9.850;2023-05-29T08:08:24;11.10;;;5.40;;
77322;SDS011;66384;51.052;9.850;2023-05-29T08:10:53;12.80;;;5.50;;
77322;SDS011;66384;51.052;9.850;2023-05-29T08:13:23;9.40;;;5.30;;
77322;SDS011;66384;51.052;9.850;2023-05-29T08:15:53;11.20;;;5.00;;
77322;SDS011;66384;51.052;9.850;2023-05-29T08:18:24;8.00;;;4.30;;
77322;SDS011;66384;51.052;9.850;2023-05-29T08:20:54;8.90;;;4.50;;
77322;SDS011;66384;51.052;9.850;2023-05-29T08:23:23;9.30;;;4.70;;
77322;SDS011;66384;51.052;9.850;2023-05-29T08:25:52;12.70;;;5.00;;
77322;SDS011;66384;51.052;9.850;2023-05-29T08:28:22;9.20;;;4.60;;
77322;SDS011;66384;51.052;9.850;2023-05-29T08:30:52;9.80;;;4.40;;
77322;SDS011;66384;51.052;9.850;2023-05-29T08:33:22;11.90;;;5.00;;
77322;SDS011;66384;51.052;9.850;2023-05-29T08:35:51;9.20;;;5.20;;
77322;SDS011;66384;51.052;9.850;2023-05-29T08:38:20;12.70;;;5.50;;
77322;SDS011;66384;51.052;9.850;2023-05-29T08:40:51;9.30;;;4.50;;
77322;SDS011;66384;51.052;9.850;2023-05-29T08:43:23;8.10;;;4.30;;
77322;SDS011;66384;51.052;9.850;2023-05-29T08:45:58;8.00;;;4.30;;
77322;SDS011;66384;51.052;9.850;2023-05-29T08:48:29;12.70;;;5.20;;
77322;SDS011;66384;51.052;9.850;2023-05-29T08:50:58;8.70;;;4.50;;
77322;SDS011;66384;51.052;9.850;2023-05-29T08:53:31;9.00;;;4.90;;
77322;SDS011;66384;51.052;9.850;2023-05-29T08:56:01;11.10;;;4.80;;
77322;SDS011;66384;51.052;9.850;2023-05-29T08:58:30;12.60;;;5.30;;
77322;SDS011;66384;51.052;9.850;2023-05-29T09:01:00;9.60;;;5.20;;
77322;SDS011;66384;51.052;9.850;2023-05-29T09:03:31;8.50;;;4.30;;
77322;SDS011;66384;51.052;9.850;2023-05-29T09:06:01;11.60;;;5.10;;
77322;SDS011;66384;51.052;9.850;2023-05-29T09:08:33;11.20;;;5.40;;
77322;SDS011;66384;51.052;9.850;2023-05-29T09:11:03;10.90;;;5.00;;
77322;SDS011;66384;51.052;9.850;2023-05-29T09:13:33;11.10;;;5.10;;
77322;SDS011;66384;51.052;9.850;2023-05-29T09:16:02;14.50;;;5.60;;
77322;SDS011;66384;51.052;9.850;2023-05-29T09:18:33;11.00;;;4.10;;
77322;SDS011;66384;51.052;9.850;2023-05-29T09:21:06;14.70;;;6.20;;
77322;SDS011;66384;51.052;9.850;2023-05-29T09:23:36;10.70;;;4.30;;
77322;SDS011;66384;51.052;9.850;2023-05-29T09:26:06;10.00;;;5.30;;
77322;SDS011;66384;51.052;9.850;2023-05-29T09:28:35;10.10;;;5.00;;
77322;SDS011;66384;51.052;9.850;2023-05-29T09:31:14;8.50;;;4.10;;
77322;SDS011;66384;51.052;9.850;2023-05-29T09:33:49;10.50;;;5.00;;
77322;SDS011;66384;51.052;9.850;2023-05-29T09:36:22;10.30;;;4.70;;
77322;SDS011;66384;51.052;9.850;2023-05-29T09:38:52;10.30;;;5.20;;
77322;SDS011;66384;51.052;9.850;2023-05-29T09:41:21;12.10;;;5.50;;
77322;SDS011;66384;51.052;9.850;2023-05-29T09:43:51;8.80;;;4.80;;
77322;SDS011;66384;51.052;9.850;2023-05-29T09:46:21;15.60;;;5.40;;
77322;SDS011;66384;51.052;9.850;2023-05-29T09:48:50;11.10;;;4.80;;
77322;SDS011;66384;51.052;9.850;2023-05-29T09:51:20;11.30;;;4.90;;
77322;SDS011;66384;51.052;9.850;2023-05-29T09:53:50;10.40;;;5.50;;
77322;SDS011;66384;51.052;9.850;2023-05-29T09:56:20;14.00;;;5.00;;
77322;SDS011;66384;51.052;9.850;2023-05-29T09:58:51;12.30;;;5.30;;
77322;SDS011;66384;51.052;9.850;2023-05-29T10:01:23;9.80;;;5.00;;
77322;SDS011;66384;51.052;9.850;2023-05-29T10:03:54;12.00;;;5.10;;
77322;SDS011;66384;51.052;9.850;2023-05-29T10:06:23;9.60;;;4.40;;
77322;SDS011;66384;51.052;9.850;2023-05-29T10:08:54;9.60;;;4.90;;
77322;SDS011;66384;51.052;9.850;2023-05-29T10:11:24;13.20;;;5.40;;
77322;SDS011;66384;51.052;9.850;2023-05-29T10:13:54;11.50;;;5.20;;
77322;SDS011;66384;51.052;9.850;2023-05-29T10:16:27;10.90;;;5.60;;
77322;SDS011;66384;51.052;9.850;2023-05-29T10:19:01;10.50;;;4.70;;
77322;SDS011;66384;51.052;9.850;2023-05-29T10:21:39;13.60;;;4.70;;
77322;SDS011;66384;51.052;9.850;2023-05-29T10:24:10;9.00;;;4.80;;
77322;SDS011;66384;51.052;9.850;2023-05-29T10:26:40;8.80;;;4.80;;
77322;SDS011;66384;51.052;9.850;2023-05-29T10:29:15;10.50;;;4.80;;
77322;SDS011;66384;51.052;9.850;2023-05-29T10:31:54;11.20;;;4.90;;
77322;SDS011;66384;51.052;9.850;2023-05-29T10:34:36;10.10;;;4.40;;
77322;SDS011;66384;51.052;9.850;2023-05-29T10:37:14;8.70;;;4.40;;
77322;SDS011;66384;51.052;9.850;2023-05-29T10:39:51;8.50;;;4.90;;
77322;SDS011;66384;51.052;9.850;2023-05-29T10:45:11;9.40;;;4.60;;
77322;SDS011;66384;51.052;9.850;2023-05-29T10:51:23;10.40;;;4.40;;
77322;SDS011;66384;51.052;9.850;2023-05-29T10:53:54;9.10;;;4.70;;
77322;SDS011;66384;51.052;9.850;2023-05-29T10:56:24;10.30;;;4.40;;
77322;SDS011;66384;51.052;9.850;2023-05-29T10:58:58;8.00;;;4.70;;
77322;SDS011;66384;51.052;9.850;2023-05-29T11:01:28;9.80;;;4.80;;
77322;SDS011;66384;51.052;9.850;2023-05-29T11:07:00;12.00;;;4.60;;
77322;SDS011;66384;51.052;9.850;2023-05-29T11:09:33;10.60;;;4.70;;
77322;SDS011;66384;51.052;9.850;2023-05-29T11:12:13;10.00;;;5.00;;
77322;SDS011;66384;51.052;9.850;2023-05-29T11:15:02;9.30;;;4.50;;
77322;SDS011;66384;51.052;9.850;2023-05-29T11:17:42;10.50;;;4.90;;
77322;SDS011;66384;51.052;9.850;2023-05-29T11:20:20;9.00;;;4.60;;
77322;SDS011;66384;51.052;9.850;2023-05-29T11:23:03;10.60;;;4.40;;
77322;SDS011;66384;51.052;9.850;2023-05-29T11:25:35;10.40;;;5.30;;
77322;SDS011;66384;51.052;9.850;2023-05-29T11:30:42;9.70;;;5.50;;
77322;SDS011;66384;51.052;9.850;2023-05-29T11:33:22;8.70;;;4.20;;
77322;SDS011;66384;51.052;9.850;2023-05-29T11:35:55;9.10;;;5.00;;
77322;SDS011;66384;51.052;9.850;2023-05-29T11:38:26;9.40;;;4.20;;
77322;SDS011;66384;51.052;9.850;2023-05-29T11:40:56;14.00;;;7.10;;
77322;SDS011;66384;51.052;9.850;2023-05-29T11:43:25;13.00;;;6.50;;
77322;SDS011;66384;51.052;9.850;2023-05-29T11:45:55;11.10;;;5.60;;
77322;SDS011;66384;51.052;9.850;2023-05-29T11:48:24;8.80;;;5.10;;
77322;SDS011;66384;51.052;9.850;2023-05-29T11:50:53;11.90;;;4.80;;
77322;SDS011;66384;51.052;9.850;2023-05-29T11:53:23;15.80;;;5.90;;
77322;SDS011;66384;51.052;9.850;2023-05-29T11:55:54;11.70;;;6.60;;
77322;SDS011;66384;51.052;9.850;2023-05-29T11:58:37;12.20;;;4.90;;
77322;SDS011;66384;51.052;9.850;2023-05-29T12:03:38;13.00;;;4.80;;
77322;SDS011;66384;51.052;9.850;2023-05-29T12:06:09;12.00;;;4.90;;
77322;SDS011;66384;51.052;9.850;2023-05-29T12:11:06;10.90;;;4.50;;
77322;SDS011;66384;51.052;9.850;2023-05-29T12:13:36;7.70;;;4.60;;
77322;SDS011;66384;51.052;9.850;2023-05-29T12:16:05;8.90;;;4.60;;
77322;SDS011;66384;51.052;9.850;2023-05-29T12:18:35;8.40;;;4.60;;
77322;SDS011;66384;51.052;9.850;2023-05-29T12:21:05;9.50;;;4.50;;
77322;SDS011;66384;51.052;9.850;2023-05-29T12:23:34;9.30;;;4.30;;
77322;SDS011;66384;51.052;9.850;2023-05-29T12:26:06;8.30;;;4.60;;
77322;SDS011;66384;51.052;9.850;2023-05-29T12:28:36;8.40;;;4.90;;
77322;SDS011;66384;51.052;9.850;2023-05-29T12:31:11;7.60;;;4.30;;
77322;SDS011;66384;51.052;9.850;2023-05-29T12:33:43;8.30;;;5.00;;
77322;SDS011;66384;51.052;9.850;2023-05-29T12:36:12;9.60;;;4.70;;
77322;SDS011;66384;51.052;9.850;2023-05-29T12:38:48;9.20;;;4.70;;
77322;SDS011;66384;51.052;9.850;2023-05-29T12:41:26;10.30;;;4.80;;
77322;SDS011;66384;51.052;9.850;2023-05-29T12:43:56;9.80;;;5.70;;
77322;SDS011;66384;51.052;9.850;2023-05-29T12:46:34;8.10;;;4.80;;
77322;SDS011;66384;51.052;9.850;2023-05-29T12:49:12;10.70;;;5.10;;
77322;SDS011;66384;51.052;9.850;2023-05-29T12:51:42;8.60;;;4.80;;
77322;SDS011;66384;51.052;9.850;2023-05-29T12:54:12;8.60;;;4.60;;
77322;SDS011;66384;51.052;9.850;2023-05-29T12:56:43;8.20;;;4.50;;
77322;SDS011;66384;51.052;9.850;2023-05-29T12:59:12;9.60;;;4.60;;
77322;SDS011;66384;51.052;9.850;2023-05-29T13:01:42;9.60;;;5.00;;
77322;SDS011;66384;51.052;9.850;2023-05-29T13:04:11;8.60;;;4.00;;
77322;SDS011;66384;51.052;9.850;2023-05-29T13:06:42;9.00;;;4.90;;
77322;SDS011;66384;51.052;9.850;2023-05-29T13:09:11;7.20;;;4.70;;
77322;SDS011;66384;51.052;9.850;2023-05-29T13:11:40;7.40;;;4.40;;
77322;SDS011;66384;51.052;9.850;2023-05-29T13:14:10;8.70;;;4.60;;
77322;SDS011;66384;51.052;9.850;2023-05-29T13:16:39;10.70;;;4.60;;
77322;SDS011;66384;51.052;9.850;2023-05-29T13:19:08;13.30;;;4.60;;
77322;SDS011;66384;51.052;9.850;2023-05-29T13:21:38;8.20;;;4.60;;
77322;SDS011;66384;51.052;9.850;2023-05-29T13:24:14;8.60;;;4.90;;
77322;SDS011;66384;51.052;9.850;2023-05-29T13:26:43;10.70;;;4.60;;
77322;SDS011;66384;51.052;9.850;2023-05-29T13:29:12;8.80;;;4.70;;
77322;SDS011;66384;51.052;9.850;2023-05-29T13:31:41;8.20;;;4.80;;
77322;SDS011;66384;51.052;9.850;2023-05-29T13:34:11;10.00;;;4.90;;
77322;SDS011;66384;51.052;9.850;2023-05-29T13:36:40;8.20;;;4.80;;
77322;SDS011;66384;51.052;9.850;2023-05-29T13:39:11;9.90;;;5.10;;
77322;SDS011;66384;51.052;9.850;2023-05-29T13:41:40;9.30;;;4.20;;
77322;SDS011;66384;51.052;9.850;2023-05-29T13:44:09;6.70;;;4.90;;
77322;SDS011;66384;51.052;9.850;2023-05-29T13:46:38;9.40;;;5.60;;
77322;SDS011;66384;51.052;9.850;2023-05-29T13:49:08;10.20;;;5.40;;
77322;SDS011;66384;51.052;9.850;2023-05-29T13:51:37;9.00;;;5.80;;
77322;SDS011;66384;51.052;9.850;2023-05-29T13:54:06;11.20;;;5.60;;
77322;SDS011;66384;51.052;9.850;2023-05-29T13:56:36;8.20;;;5.30;;
77322;SDS011;66384;51.052;9.850;2023-05-29T13:59:05;8.50;;;4.70;;
77322;SDS011;66384;51.052;9.850;2023-05-29T14:01:34;13.90;;;5.00;;
77322;SDS011;66384;51.052;9.850;2023-05-29T14:04:04;9.60;;;4.60;;
77322;SDS011;66384;51.052;9.850;2023-05-29T14:06:33;9.30;;;5.10;;
77322;SDS011;66384;51.052;9.850;2023-05-29T14:09:03;8.60;;;4.80;;
77322;SDS011;66384;51.052;9.850;2023-05-29T14:11:36;11.00;;;5.70;;
77322;SDS011;66384;51.052;9.850;2023-05-29T14:14:05;9.90;;;4.80;;
77322;SDS011;66384;51.052;9.850;2023-05-29T14:16:34;9.70;;;4.90;;
77322;SDS011;66384;51.052;9.850;2023-05-29T14:19:03;9.10;;;4.80;;
77322;SDS011;66384;51.052;9.850;2023-05-29T14:21:33;8.40;;;4.90;;
77322;SDS011;66384;51.052;9.850;2023-05-29T14:24:03;8.40;;;5.20;;
77322;SDS011;66384;51.052;9.850;2023-05-29T14:26:33;7.90;;;4.80;;
77322;SDS011;66384;51.052;9.850;2023-05-29T14:29:02;6.60;;;4.40;;
77322;SDS011;66384;51.052;9.850;2023-05-29T14:31:32;8.20;;;4.30;;
77322;SDS011;66384;51.052;9.850;2023-05-29T14:34:01;10.50;;;5.00;;
77322;SDS011;66384;51.052;9.850;2023-05-29T14:36:30;8.80;;;4.60;;
77322;SDS011;66384;51.052;9.850;2023-05-29T14:39:00;7.40;;;4.60;;
77322;SDS011;66384;51.052;9.850;2023-05-29T14:41:29;7.90;;;4.70;;
77322;SDS011;66384;51.052;9.850;2023-05-29T14:44:00;9.70;;;4.60;;
77322;SDS011;66384;51.052;9.850;2023-05-29T14:46:29;9.10;;;4.80;;
77322;SDS011;66384;51.052;9.850;2023-05-29T14:48:59;10.00;;;4.70;;
77322;SDS011;66384;51.052;9.850;2023-05-29T14:51:28;7.00;;;4.30;;
77322;SDS011;66384;51.052;9.850;2023-05-29T14:53:57;9.80;;;5.10;;
77322;SDS011;66384;51.052;9.850;2023-05-29T14:56:27;8.30;;;4.10;;
77322;SDS011;66384;51.052;9.850;2023-05-29T14:58:56;8.10;;;4.80;;
77322;SDS011;66384;51.052;9.850;2023-05-29T15:01:25;8.10;;;4.40;;
77322;SDS011;66384;51.052;9.850;2023-05-29T15:03:54;9.80;;;4.40;;
77322;SDS011;66384;51.052;9.850;2023-05-29T15:06:23;11.00;;;5.30;;
77322;SDS011;66384;51.052;9.850;2023-05-29T15:08:52;10.00;;;5.10;;
77322;SDS011;66384;51.052;9.850;2023-05-29T15:11:22;8.70;;;4.90;;
77322;SDS011;66384;51.052;9.850;2023-05-29T15:13:51;9.10;;;4.80;;
77322;SDS011;66384;51.052;9.850;2023-05-29T15:16:21;11.10;;;4.60;;
77322;SDS011;66384;51.052;9.850;2023-05-29T15:18:50;8.10;;;5.00;;
77322;SDS011;66384;51.052;9.850;2023-05-29T15:21:19;8.70;;;5.10;;
77322;SDS011;66384;51.052;9.850;2023-05-29T15:23:49;8.60;;;3.80;;
77322;SDS011;66384;51.052;9.850;2023-05-29T15:26:18;10.50;;;5.30;;